createdAt,value
2022-12-14T00:01:53.847Z,100109.28
2022-12-14T00:04:21.542Z,100113.78
2022-12-14T00:06:50.725Z,100111.97
2022-12-14T00:09:18.504Z,100103.03
2022-12-14T00:11:46.304Z,100097.66
2022-12-14T00:14:13.995Z,100082.50
2022-12-14T00:16:41.991Z,100085.09
2022-12-14T00:19:11.981Z,100081.56
2022-12-14T00:21:39.773Z,100079.81
2022-12-14T00:24:08.976Z,100083.28
2022-12-14T00:26:36.711Z,100079.72
2022-12-14T00:29:04.464Z,100081.56
2022-12-14T00:31:32.670Z,100074.38
2022-12-14T00:34:01.297Z,100081.44
2022-12-14T00:36:31.591Z,100077.91
2022-12-14T00:39:02.435Z,100080.50
2022-12-14T00:41:31.586Z,100069.75
2022-12-14T00:43:59.288Z,100066.19
2022-12-14T00:46:27.098Z,100065.25
2022-12-14T00:48:54.998Z,100062.56
2022-12-14T00:51:22.988Z,100058.13
2022-12-14T00:53:50.775Z,100051.81
2022-12-14T00:56:18.485Z,100051.81
2022-12-14T00:58:52.824Z,100053.63
2022-12-14T01:01:21.391Z,100050.00
2022-12-14T01:03:49.337Z,100043.75
2022-12-14T01:06:17.789Z,100043.69
2022-12-14T01:08:45.487Z,100039.31
2022-12-14T01:11:13.642Z,100035.78
2022-12-14T01:13:41.628Z,100026.75
2022-12-14T01:16:12.106Z,100033.00
2022-12-14T01:18:40.510Z,100038.38
2022-12-14T01:21:09.984Z,100032.13
2022-12-14T01:23:37.947Z,100028.59
2022-12-14T01:26:05.646Z,100020.44
2022-12-14T01:28:35.092Z,100018.63
2022-12-14T01:31:06.157Z,100015.00
2022-12-14T01:33:35.449Z,100007.81
2022-12-14T01:36:07.124Z,100005.03
2022-12-14T01:38:35.006Z,100008.59
2022-12-14T01:41:02.764Z,100010.34
2022-12-14T01:43:45.463Z,100005.84
2022-12-14T01:46:19.074Z,99997.78
2022-12-14T01:48:49.406Z,99994.22
2022-12-14T01:51:17.159Z,99996.97
2022-12-14T01:53:45.037Z,99990.66
2022-12-14T01:56:13.053Z,99986.22
2022-12-14T01:58:42.056Z,99985.44
2022-12-14T02:01:11.310Z,99970.34
2022-12-14T02:03:41.490Z,99968.59
2022-12-14T02:06:13.011Z,99965.09
2022-12-14T02:08:43.336Z,99953.56
2022-12-14T02:11:11.098Z,99957.09
2022-12-14T02:13:40.569Z,99955.38
2022-12-14T02:16:08.724Z,99959.00
2022-12-14T02:18:36.575Z,99948.25
2022-12-14T02:21:18.797Z,99953.63
2022-12-14T02:23:58.846Z,99951.03
2022-12-14T02:26:40.891Z,99953.72
2022-12-14T02:29:25.471Z,99956.41
2022-12-14T02:31:59.167Z,99953.72
2022-12-14T02:34:34.119Z,99944.78
2022-12-14T02:37:06.372Z,99937.66
2022-12-14T02:39:39.834Z,99935.09
2022-12-14T02:42:09.895Z,99940.34
2022-12-14T02:44:45.802Z,99936.78
2022-12-14T02:47:16.734Z,99932.41
2022-12-14T02:49:51.156Z,99927.88
2022-12-14T02:52:26.445Z,99934.22
2022-12-14T02:54:57.186Z,99925.19
2022-12-14T02:57:28.601Z,99924.34
2022-12-14T02:59:59.661Z,99909.06
2022-12-14T03:02:29.421Z,99901.88
2022-12-14T03:04:59.612Z,99900.06
2022-12-14T03:07:31.320Z,99904.56
2022-12-14T03:10:01.004Z,99901.88
2022-12-14T03:12:28.921Z,99887.56
2022-12-14T03:15:00.202Z,99880.50
2022-12-14T03:17:31.091Z,99888.56
2022-12-14T03:20:01.894Z,99887.56
2022-12-14T03:22:33.542Z,99880.59
2022-12-14T03:25:03.090Z,99888.56
2022-12-14T03:27:32.618Z,99890.38
2022-12-14T03:30:05.267Z,99887.69
2022-12-14T03:32:34.338Z,99886.75
2022-12-14T03:35:04.421Z,99892.13
2022-12-14T03:37:35.325Z,99889.44
2022-12-14T03:40:03.179Z,99893.81
2022-12-14T03:42:34.241Z,99892.94
2022-12-14T03:45:08.156Z,99893.81
2022-12-14T03:47:48.803Z,99891.13
2022-12-14T03:50:18.549Z,99892.00
2022-12-14T03:52:50.815Z,99894.69
2022-12-14T03:55:24.510Z,99893.81
2022-12-14T03:58:07.990Z,99899.19
2022-12-14T04:00:42.316Z,99885.75
2022-12-14T04:03:13.339Z,99887.56
2022-12-14T04:05:48.759Z,99889.44
2022-12-14T04:08:22.752Z,99890.25
2022-12-14T04:11:10.461Z,99890.25
2022-12-14T04:14:05.506Z,99891.25
2022-12-14T04:16:55.302Z,99884.91
2022-12-14T04:19:26.504Z,99871.47
2022-12-14T04:21:56.573Z,99869.75
2022-12-14T04:24:45.980Z,99868.78
2022-12-14T04:27:18.573Z,99865.25
2022-12-14T04:30:00.416Z,99862.56
2022-12-14T04:32:32.561Z,99864.38
2022-12-14T04:35:03.796Z,99867.06
2022-12-14T04:37:32.869Z,99864.28
2022-12-14T04:40:05.262Z,99866.97
2022-12-14T04:42:35.135Z,99858.03
2022-12-14T04:45:06.196Z,99859.00
2022-12-14T04:47:38.036Z,99857.19
2022-12-14T04:50:09.972Z,99851.81
2022-12-14T04:52:40.821Z,99847.41
2022-12-14T04:55:12.150Z,99846.44
2022-12-14T04:57:42.701Z,99845.59
2022-12-14T05:00:11.291Z,99841.16
2022-12-14T05:03:02.926Z,99844.72
2022-12-14T05:05:35.388Z,99837.53
2022-12-14T05:08:05.751Z,99840.22
2022-12-14T05:10:37.519Z,99834.84
2022-12-14T05:13:07.857Z,99836.66
2022-12-14T05:15:40.351Z,99829.47
2022-12-14T05:18:09.649Z,99829.47
2022-12-14T05:20:37.356Z,99825.91
2022-12-14T05:23:05.120Z,99821.41
2022-12-14T05:25:34.656Z,99817.00
2022-12-14T05:28:02.599Z,99811.63
2022-12-14T05:30:30.425Z,99800.88
2022-12-14T05:32:58.769Z,99797.41
2022-12-14T05:35:27.997Z,99786.56
2022-12-14T05:37:55.843Z,99789.25
2022-12-14T05:40:23.586Z,99785.72
2022-12-14T05:42:55.710Z,99783.03
2022-12-14T05:45:23.835Z,99778.53
2022-12-14T05:47:51.510Z,99776.78
2022-12-14T05:50:19.305Z,99782.16
2022-12-14T05:52:48.526Z,99779.47
2022-12-14T05:55:19.827Z,99775.06
2022-12-14T05:57:47.580Z,99776.00
2022-12-14T06:00:16.350Z,99776.00
2022-12-14T06:02:44.072Z,99769.75
2022-12-14T06:05:11.799Z,99766.22
2022-12-14T06:07:39.747Z,99768.88
2022-12-14T06:10:09.300Z,99776.06
2022-12-14T06:12:37.077Z,99777.91
2022-12-14T06:15:05.056Z,99774.25
2022-12-14T06:17:34.191Z,99784.06
2022-12-14T06:20:01.806Z,99775.13
2022-12-14T06:22:29.627Z,99777.72
2022-12-14T06:24:57.307Z,99775.91
2022-12-14T06:27:26.440Z,99763.34
2022-12-14T06:29:54.152Z,99762.50
2022-12-14T06:32:21.878Z,99771.41
2022-12-14T06:34:49.665Z,99774.97
2022-12-14T06:37:17.632Z,99775.91
2022-12-14T06:39:46.469Z,99774.09
2022-12-14T06:42:20.464Z,99770.63
2022-12-14T06:44:49.513Z,99777.72
2022-12-14T06:47:17.331Z,99767.06
2022-12-14T06:50:10.282Z,99765.25
2022-12-14T06:52:39.707Z,99765.25
2022-12-14T06:55:08.014Z,99766.13
2022-12-14T06:57:35.750Z,99756.25
2022-12-14T07:00:05.007Z,99760.75
2022-12-14T07:02:32.942Z,99756.25
2022-12-14T07:05:00.939Z,99760.75
2022-12-14T07:07:28.666Z,99759.88
2022-12-14T07:09:56.540Z,99753.56
2022-12-14T07:12:25.674Z,99754.50
2022-12-14T07:14:53.367Z,99753.56
2022-12-14T07:17:22.478Z,99754.50
2022-12-14T07:19:50.169Z,99761.69
2022-12-14T07:22:18.287Z,99757.19
2022-12-14T07:24:46.154Z,99758.16
2022-12-14T07:27:13.855Z,99753.66
2022-12-14T07:29:41.504Z,99759.00
2022-12-14T07:32:09.134Z,99749.22
2022-12-14T07:34:38.133Z,99750.09
2022-12-14T07:37:05.804Z,99747.41
2022-12-14T07:39:33.465Z,99758.16
2022-12-14T07:42:13.567Z,99768.88
2022-12-14T07:44:48.329Z,99775.13
2022-12-14T07:47:16.823Z,99774.19
2022-12-14T07:49:45.896Z,99772.44
2022-12-14T07:52:15.384Z,99770.63
2022-12-14T07:54:43.292Z,99776.88
2022-12-14T07:57:11.103Z,99776.88
2022-12-14T07:59:38.794Z,99773.22
2022-12-14T08:02:07.065Z,99778.59
2022-12-14T08:04:35.379Z,99773.22
2022-12-14T08:07:04.901Z,99768.72
2022-12-14T08:09:32.482Z,99777.72
2022-12-14T08:12:00.186Z,99775.06
2022-12-14T08:14:27.802Z,99784.84
2022-12-14T08:16:55.466Z,99783.97
2022-12-14T08:19:23.051Z,99786.56
2022-12-14T08:21:50.703Z,99788.41
2022-12-14T08:24:19.823Z,99780.34
2022-12-14T08:26:49.294Z,99774.97
2022-12-14T08:29:17.580Z,99774.09
2022-12-14T08:31:45.213Z,99777.66
2022-12-14T08:34:12.853Z,99775.84
2022-12-14T08:36:40.531Z,99781.28
2022-12-14T08:39:09.495Z,99782.06
2022-12-14T08:41:38.552Z,99782.16
2022-12-14T08:44:06.786Z,99781.22
2022-12-14T08:46:35.197Z,99779.47
2022-12-14T08:49:03.074Z,99771.41
2022-12-14T08:51:30.760Z,99782.16
2022-12-14T08:53:58.828Z,99782.06
2022-12-14T08:56:27.484Z,99786.56
2022-12-14T08:58:56.498Z,99785.63
2022-12-14T09:01:32.118Z,99794.56
2022-12-14T09:04:03.115Z,99787.38
2022-12-14T09:06:31.105Z,99791.75
2022-12-14T09:08:58.885Z,99797.13
2022-12-14T09:11:26.502Z,99801.53
2022-12-14T09:13:55.156Z,99792.63
2022-12-14T09:16:26.226Z,99791.75
2022-12-14T09:18:55.103Z,99792.63
2022-12-14T09:21:22.992Z,99798.84
2022-12-14T09:23:57.400Z,99798.84
2022-12-14T09:26:26.994Z,99800.59
2022-12-14T09:28:55.787Z,99800.59
2022-12-14T09:31:25.898Z,99797.03
2022-12-14T09:33:54.777Z,99791.59
2022-12-14T09:36:23.357Z,99792.38
2022-12-14T09:38:52.782Z,99797.75
2022-12-14T09:41:25.437Z,99799.47
2022-12-14T09:43:55.590Z,99799.47
2022-12-14T09:46:29.806Z,99795.84
2022-12-14T09:48:58.111Z,99797.56
2022-12-14T09:51:32.080Z,99801.97
2022-12-14T09:54:03.779Z,99803.72
2022-12-14T09:56:32.535Z,99806.41
2022-12-14T09:59:01.968Z,99805.38
2022-12-14T10:01:55.502Z,99798.16
2022-12-14T10:04:47.821Z,99795.41
2022-12-14T10:07:20.062Z,99794.44
2022-12-14T10:09:50.286Z,99806.03
2022-12-14T10:12:26.324Z,99802.31
2022-12-14T10:15:07.267Z,99802.31
2022-12-14T10:17:43.913Z,99804.06
2022-12-14T10:20:17.625Z,99804.91
2022-12-14T10:22:47.697Z,99810.22
2022-12-14T10:25:17.972Z,99803.88
2022-12-14T10:28:09.946Z,99801.06
2022-12-14T10:30:36.728Z,99808.19
2022-12-14T10:33:25.085Z,99801.00
2022-12-14T10:35:53.626Z,99802.66
2022-12-14T10:38:26.160Z,99808.03
2022-12-14T10:40:55.886Z,99806.13
2022-12-14T10:43:38.072Z,99799.00
2022-12-14T10:46:14.581Z,99802.47
2022-12-14T10:48:49.255Z,99799.78
2022-12-14T10:51:20.237Z,99807.75
2022-12-14T10:53:50.598Z,99797.84
2022-12-14T10:56:20.944Z,99788.84
2022-12-14T10:59:04.091Z,99787.03
2022-12-14T11:01:31.833Z,99787.81
2022-12-14T11:04:00.990Z,99795.88
2022-12-14T11:06:28.970Z,99792.22
2022-12-14T11:08:57.948Z,99793.97
2022-12-14T11:11:26.797Z,99791.16
2022-12-14T11:13:55.418Z,99785.69
2022-12-14T11:16:33.697Z,99775.81
2022-12-14T11:19:06.069Z,99771.31
2022-12-14T11:21:35.118Z,99772.19
2022-12-14T11:24:03.180Z,99766.72
2022-12-14T11:26:33.980Z,99772.97
2022-12-14T11:29:02.558Z,99783.63
2022-12-14T11:31:33.522Z,99776.44
2022-12-14T11:34:03.000Z,99779.88
2022-12-14T11:36:34.135Z,99788.78
2022-12-14T11:39:02.763Z,99801.19
2022-12-14T11:41:35.077Z,99794.97
2022-12-14T11:44:06.991Z,99780.56
2022-12-14T11:46:45.402Z,99777.78
2022-12-14T11:49:24.660Z,99771.53
2022-12-14T11:51:59.007Z,99771.47
2022-12-14T11:54:26.668Z,99769.63
2022-12-14T11:56:58.691Z,99775.88
2022-12-14T11:59:28.664Z,99775.75
2022-12-14T12:01:56.912Z,99781.13
2022-12-14T12:04:24.664Z,99782.88
2022-12-14T12:06:54.406Z,99779.22
2022-12-14T12:09:27.814Z,99784.53
2022-12-14T12:11:55.623Z,99771.88
2022-12-14T12:14:30.360Z,99774.44
2022-12-14T12:16:58.105Z,99772.63
2022-12-14T12:19:27.303Z,99784.16
2022-12-14T12:21:55.942Z,99787.63
2022-12-14T12:24:26.209Z,99784.84
2022-12-14T12:26:57.299Z,99790.13
2022-12-14T12:29:28.377Z,99789.16
2022-12-14T12:31:58.777Z,99795.31
2022-12-14T12:34:29.272Z,99795.22
2022-12-14T12:37:25.315Z,99794.25
2022-12-14T12:39:49.878Z,99797.72
2022-12-14T12:42:24.343Z,99794.94
2022-12-14T12:44:55.829Z,99797.53
2022-12-14T12:47:37.008Z,99798.31
2022-12-14T12:50:15.566Z,99797.44
2022-12-14T12:52:50.140Z,99798.22
2022-12-14T12:55:18.352Z,99791.09
2022-12-14T12:57:49.865Z,99790.16
2022-12-14T13:00:18.997Z,99797.28
2022-12-14T13:02:50.421Z,99796.41
2022-12-14T13:08:10.005Z,99803.59
2022-12-14T13:10:55.768Z,99808.97
2022-12-14T13:13:32.190Z,99808.97
2022-12-14T13:16:07.050Z,99807.25
2022-12-14T13:21:30.890Z,99810.88
2022-12-14T13:23:58.920Z,99813.59
2022-12-14T13:26:57.804Z,99815.41
2022-12-14T13:29:36.199Z,99807.41
2022-12-14T13:32:09.241Z,99808.38
2022-12-14T13:34:41.370Z,99815.50
2022-12-14T13:37:15.131Z,99816.44
2022-12-14T13:39:50.753Z,99815.59
2022-12-14T13:42:23.651Z,99806.56
2022-12-14T13:44:57.770Z,99812.78
2022-12-14T13:47:29.519Z,99810.97
2022-12-14T13:50:39.826Z,99815.50
2022-12-14T13:52:48.443Z,99816.44
2022-12-14T13:55:22.971Z,99827.19
2022-12-14T13:57:50.907Z,99818.28
2022-12-14T14:00:39.809Z,99817.44
2022-12-14T14:03:29.996Z,99824.63
2022-12-14T14:06:01.671Z,99821.94
2022-12-14T14:08:36.094Z,99811.28
2022-12-14T14:11:40.412Z,99825.59
2022-12-14T14:14:15.846Z,99819.34
2022-12-14T14:16:46.062Z,99822.97
2022-12-14T14:19:20.791Z,99814.03
2022-12-14T14:24:56.334Z,99822.19
2022-12-14T14:27:25.492Z,99816.81
2022-12-14T14:29:53.643Z,99821.41
2022-12-14T14:32:33.219Z,99822.28
2022-12-14T14:35:01.731Z,99820.56
2022-12-14T14:37:32.670Z,99830.47
2022-12-14T14:40:16.715Z,99830.56
2022-12-14T14:42:50.170Z,99827.00
2022-12-14T14:45:35.838Z,99823.44
2022-12-14T14:48:11.176Z,99839.66
2022-12-14T14:50:41.190Z,99838.78
2022-12-14T14:53:26.305Z,99838.88
2022-12-14T14:56:15.325Z,99848.78
2022-12-14T14:58:43.573Z,99855.97
2022-12-14T15:01:19.759Z,99849.84
2022-12-14T15:03:52.792Z,99855.22
2022-12-14T15:06:23.163Z,99869.59
2022-12-14T15:08:56.729Z,99870.56
2022-12-14T15:11:26.143Z,99866.13
2022-12-14T15:13:55.266Z,99870.66
2022-12-14T15:16:24.035Z,99873.34
2022-12-14T15:18:51.667Z,99871.59
2022-12-14T15:21:20.279Z,99871.69
2022-12-14T15:23:49.457Z,99863.63
2022-12-14T15:26:20.737Z,99873.50
2022-12-14T15:28:49.774Z,99883.41
2022-12-14T15:31:17.717Z,99884.38
2022-12-14T15:33:48.004Z,99876.38
2022-12-14T15:36:17.150Z,99879.16
2022-12-14T15:38:52.528Z,99887.22
2022-12-14T15:41:23.216Z,99887.31
2022-12-14T15:43:55.105Z,99889.13
2022-12-14T15:46:28.492Z,99899.13
2022-12-14T15:48:56.772Z,99899.22
2022-12-14T15:51:26.351Z,99901.97
2022-12-14T15:53:54.865Z,99901.19
2022-12-14T15:56:27.362Z,99903.97
2022-12-14T15:58:56.533Z,99908.59
2022-12-14T16:01:25.898Z,99915.88
2022-12-14T16:03:55.142Z,99916.81
2022-12-14T16:06:23.679Z,99929.38
2022-12-14T16:08:55.959Z,99924.09
2022-12-14T16:11:27.559Z,99919.66
2022-12-14T16:13:58.300Z,99935.88
2022-12-14T16:16:26.297Z,99935.03
2022-12-14T16:18:54.263Z,99931.47
2022-12-14T16:21:30.345Z,99937.81
2022-12-14T16:23:58.220Z,99937.81
2022-12-14T16:26:29.816Z,99935.19
2022-12-14T16:29:07.542Z,99943.25
2022-12-14T16:31:35.418Z,99945.06
2022-12-14T16:34:08.302Z,99939.78
2022-12-14T16:36:37.007Z,99946.03
2022-12-14T16:39:06.479Z,99952.34
2022-12-14T16:41:36.933Z,99953.28
2022-12-14T16:44:05.650Z,99960.47
2022-12-14T16:46:33.299Z,99970.38
2022-12-14T16:49:20.546Z,99973.16
2022-12-14T16:52:12.419Z,99967.78
2022-12-14T16:54:40.154Z,99970.56
2022-12-14T16:57:18.730Z,99964.31
2022-12-14T16:59:47.826Z,99964.41
2022-12-14T17:02:24.891Z,99962.66
2022-12-14T17:04:53.032Z,99955.66
2022-12-14T17:07:23.941Z,99963.78
2022-12-14T17:09:51.622Z,99967.44
2022-12-14T17:12:21.117Z,99969.31
2022-12-14T17:14:50.269Z,99976.59
2022-12-14T17:17:21.535Z,99978.41
2022-12-14T17:19:49.483Z,99980.34
2022-12-14T17:22:18.801Z,99983.19
2022-12-14T17:24:47.778Z,99990.38
2022-12-14T17:27:16.575Z,99993.13
2022-12-14T17:29:45.892Z,99986.97
2022-12-14T17:32:14.265Z,99992.44
2022-12-14T17:35:00.796Z,99993.41
2022-12-14T17:37:34.110Z,99992.59
2022-12-14T17:40:03.575Z,99992.69
2022-12-14T17:42:31.634Z,100006.19
2022-12-14T17:45:01.269Z,100001.78
2022-12-14T17:47:28.861Z,99993.81
2022-12-14T17:49:56.593Z,100002.81
2022-12-14T17:52:25.668Z,100010.00
2022-12-14T17:54:53.403Z,100003.84
2022-12-14T17:57:21.942Z,99997.66
2022-12-14T18:00:10.256Z,99993.28
2022-12-14T18:02:40.053Z,99999.59
2022-12-14T18:05:08.298Z,100003.31
2022-12-14T18:07:36.042Z,100000.69
2022-12-14T18:10:03.834Z,100008.75
2022-12-14T18:12:31.531Z,100003.44
2022-12-14T18:14:59.116Z,100012.56
2022-12-14T18:17:26.944Z,100014.38
2022-12-14T18:19:55.878Z,100009.06
2022-12-14T18:22:23.476Z,99999.34
2022-12-14T18:24:51.246Z,100004.81
2022-12-14T18:27:18.850Z,100002.22
2022-12-14T18:29:46.450Z,100012.16
2022-12-14T18:32:14.866Z,100019.34
2022-12-14T18:34:42.729Z,100014.06
2022-12-14T18:37:12.009Z,100013.19
2022-12-14T18:39:39.781Z,100008.84
2022-12-14T18:42:07.446Z,100007.97
2022-12-14T18:44:35.401Z,100023.13
2022-12-14T18:47:33.103Z,100019.69
2022-12-14T18:49:51.441Z,100019.75
2022-12-14T18:52:20.449Z,100025.19
2022-12-14T18:54:48.196Z,100025.19
2022-12-14T18:57:15.893Z,100027.94
2022-12-14T18:59:43.827Z,100036.06
2022-12-14T19:02:14.679Z,100037.88
2022-12-14T19:04:42.431Z,100046.06
2022-12-14T19:07:10.252Z,100038.94
2022-12-14T19:09:39.428Z,100041.69
2022-12-14T19:12:07.460Z,100034.66
2022-12-14T19:14:35.495Z,100047.22
2022-12-14T19:17:03.294Z,100049.97
2022-12-14T19:19:38.176Z,100057.16
2022-12-14T19:22:09.219Z,100049.19
2022-12-14T19:24:36.922Z,100051.94
2022-12-14T19:27:06.667Z,100061.81
2022-12-14T19:29:38.344Z,100066.31
2022-12-14T19:32:10.133Z,100061.88
2022-12-14T19:34:38.518Z,100070.88
2022-12-14T19:37:06.636Z,100065.50
2022-12-14T19:39:38.671Z,100072.69
2022-12-14T19:42:09.294Z,100081.69
2022-12-14T19:44:37.195Z,100080.81
2022-12-14T19:47:04.909Z,100084.38
2022-12-14T19:49:32.578Z,100081.78
2022-12-14T19:52:00.181Z,100085.41
2022-12-14T19:54:28.392Z,100099.78
2022-12-14T19:56:56.048Z,100095.34
2022-12-14T19:59:25.303Z,100105.22
2022-12-14T20:01:52.998Z,100101.66
2022-12-14T20:04:20.810Z,100103.47
2022-12-14T20:06:48.634Z,100101.72
2022-12-14T20:09:17.309Z,100105.34
2022-12-14T20:11:45.540Z,100108.13
2022-12-14T20:14:13.694Z,100113.56
2022-12-14T20:16:42.715Z,100106.47
2022-12-14T20:19:12.940Z,100107.41
2022-12-14T20:21:40.792Z,100109.28
2022-12-14T20:24:08.624Z,100113.72
2022-12-14T20:26:36.485Z,100112.84
2022-12-14T20:29:05.951Z,100108.41
2022-12-14T20:31:33.831Z,100115.59
2022-12-14T20:34:03.381Z,100123.63
2022-12-14T20:36:31.065Z,100128.13
2022-12-14T20:39:01.240Z,100127.34
2022-12-14T20:41:29.749Z,100136.34
2022-12-14T20:43:57.531Z,100135.47
2022-12-14T20:46:26.790Z,100140.91
2022-12-14T20:48:54.991Z,100149.81
2022-12-14T20:51:24.322Z,100143.72
2022-12-14T20:53:51.936Z,100156.19
2022-12-14T20:56:21.244Z,100156.25
2022-12-14T20:58:49.598Z,100158.09
2022-12-14T21:01:17.938Z,100155.50
2022-12-14T21:03:46.773Z,100162.66
2022-12-14T21:06:14.609Z,100167.16
2022-12-14T21:09:01.155Z,100172.53
2022-12-14T21:11:46.470Z,100178.81
2022-12-14T21:14:14.571Z,100172.59
2022-12-14T21:16:42.650Z,100189.63
2022-12-14T21:19:11.254Z,100186.94
2022-12-14T21:21:39.532Z,100190.56
2022-12-14T21:24:10.830Z,100185.25
2022-12-14T21:26:39.818Z,100187.94
2022-12-14T21:29:07.775Z,100192.47
2022-12-14T21:31:35.849Z,100188.91
2022-12-14T21:34:03.560Z,100187.16
2022-12-14T21:36:31.210Z,100186.31
2022-12-14T21:38:59.397Z,100184.56
2022-12-14T21:41:45.668Z,100172.97
2022-12-14T21:44:13.364Z,100182.88
2022-12-14T21:46:41.043Z,100178.44
2022-12-14T21:49:08.918Z,100185.72
2022-12-14T21:51:37.117Z,100188.41
2022-12-14T21:54:05.587Z,100183.97
2022-12-14T21:56:52.491Z,100183.97
2022-12-14T21:59:23.948Z,100182.25
2022-12-14T22:01:52.012Z,100187.66
2022-12-14T22:04:19.897Z,100182.31
2022-12-14T22:06:47.595Z,100186.84
2022-12-14T22:09:15.215Z,100187.78
2022-12-14T22:11:44.323Z,100182.53
2022-12-14T22:14:12.930Z,100190.56
2022-12-14T22:16:41.369Z,100186.16
2022-12-14T22:19:11.580Z,100182.59
2022-12-14T22:21:39.398Z,100185.34
2022-12-14T22:24:07.781Z,100188.97
2022-12-14T22:26:35.411Z,100185.41
2022-12-14T22:29:04.457Z,100200.63
2022-12-14T22:31:32.178Z,100189.97
2022-12-14T22:34:00.172Z,100195.31
2022-12-14T22:36:28.099Z,100180.16
2022-12-14T22:38:56.352Z,100181.03
2022-12-14T22:41:24.376Z,100181.91
2022-12-14T22:43:54.596Z,100175.69
2022-12-14T22:46:24.394Z,100181.03
2022-12-14T22:48:52.071Z,100179.34
2022-12-14T22:51:20.337Z,100177.50
2022-12-14T22:53:49.499Z,100183.88
2022-12-14T22:56:19.716Z,100191.13
2022-12-14T22:58:49.565Z,100200.09
2022-12-14T23:01:19.342Z,100201.97
2022-12-14T23:03:48.600Z,100188.66
2022-12-14T23:06:19.228Z,100199.44
2022-12-14T23:09:05.845Z,100211.16
2022-12-14T23:11:51.731Z,100215.66
2022-12-14T23:14:37.531Z,100211.31
2022-12-14T23:17:23.529Z,100216.75
2022-12-14T23:20:10.169Z,100204.34
2022-12-14T23:22:55.809Z,100220.50
2022-12-14T23:25:41.124Z,100220.50
2022-12-14T23:28:26.404Z,100221.44
2022-12-14T23:31:11.414Z,100225.03
2022-12-14T23:33:56.806Z,100224.16
2022-12-14T23:36:43.689Z,100222.38
2022-12-14T23:39:29.011Z,100232.22
2022-12-14T23:42:14.332Z,100226.84
2022-12-14T23:44:59.633Z,100236.72
2022-12-14T23:47:45.056Z,100236.63
2022-12-14T23:50:34.793Z,100234.06
2022-12-14T23:53:23.918Z,100232.22
2022-12-14T23:56:08.909Z,100230.50
2022-12-14T23:58:54.073Z,100227.81
